Time,TemperatureF,DewpointF,PressureIn,WindDirection,WindDirectionDegrees,WindSpeedMPH,WindSpeedGustMPH,Humidity,HourlyPrecipIn,Conditions,Clouds,dailyrainin,SolarRadiationWatts/m^2,SoftwareType,DateUTC
2013-04-22 00:11:00,53.0,21.0,-100.00,NE,46,1.0,11.0,28,0.00,,,0.00,0.000000,,2013-04-22 07:11:00,
2013-04-22 00:21:00,53.0,21.0,-100.00,NE,46,1.0,11.0,28,0.00,,,0.00,0.000000,,2013-04-22 07:21:00,
2013-04-22 00:32:00,53.0,21.0,-100.00,NE,46,1.0,11.0,28,0.00,,,0.00,0.000000,,2013-04-22 07:32:00,
2013-04-22 00:42:00,53.0,21.0,-100.00,NE,46,1.0,11.0,28,0.00,,,0.00,0.000000,,2013-04-22 07:42:00,
2013-04-22 01:11:00,50.0,19.0,-100.00,NE,51,0.0,6.0,29,0.00,,,0.00,0.000000,,2013-04-22 08:11:00,
2013-04-22 01:22:00,50.0,19.0,-100.00,NE,51,0.0,6.0,29,0.00,,,0.00,0.000000,,2013-04-22 08:22:00,
2013-04-22 01:32:00,50.0,19.0,-100.00,NE,51,0.0,6.0,29,0.00,,,0.00,0.000000,,2013-04-22 08:32:00,
2013-04-22 01:41:00,50.0,19.0,-100.00,NE,51,0.0,6.0,29,0.00,,,0.00,0.000000,,2013-04-22 08:41:00,
2013-04-22 02:11:00,45.0,19.0,-100.00,East,93,0.0,4.0,35,0.00,,,0.00,0.000000,,2013-04-22 09:11:00,
2013-04-22 02:21:00,45.0,19.0,-100.00,East,93,0.0,4.0,35,0.00,,,0.00,0.000000,,2013-04-22 09:21:00,
2013-04-22 02:33:00,45.0,19.0,-100.00,East,93,0.0,4.0,35,0.00,,,0.00,0.000000,,2013-04-22 09:33:00,
2013-04-22 02:42:00,45.0,19.0,-100.00,East,93,0.0,4.0,35,0.00,,,0.00,0.000000,,2013-04-22 09:42:00,
2013-04-22 03:12:00,45.0,21.0,-100.00,WSW,237,0.0,2.0,38,0.00,,,0.00,0.000000,,2013-04-22 10:12:00,
2013-04-22 03:22:00,45.0,21.0,-100.00,WSW,237,0.0,2.0,38,0.00,,,0.00,0.000000,,2013-04-22 10:22:00,
2013-04-22 03:32:00,45.0,21.0,-100.00,WSW,237,0.0,2.0,38,0.00,,,0.00,0.000000,,2013-04-22 10:32:00,
2013-04-22 03:42:00,45.0,21.0,-100.00,WSW,237,0.0,2.0,38,0.00,,,0.00,0.000000,,2013-04-22 10:42:00,
2013-04-22 04:12:00,48.0,25.0,-100.00,SW,236,4.0,7.0,41,0.00,,,0.00,0.000000,,2013-04-22 11:12:00,
2013-04-22 04:22:00,48.0,25.0,-100.00,SW,236,4.0,7.0,41,0.00,,,0.00,0.000000,,2013-04-22 11:22:00,
2013-04-22 04:32:00,48.0,25.0,-100.00,SW,236,4.0,7.0,41,0.00,,,0.00,0.000000,,2013-04-22 11:32:00,
2013-04-22 04:42:00,48.0,25.0,-100.00,SW,236,4.0,7.0,41,0.00,,,0.00,0.000000,,2013-04-22 11:42:00,
2013-04-22 05:12:00,47.0,28.0,-100.00,WSW,237,4.0,9.0,48,0.00,,,0.00,0.000000,,2013-04-22 12:12:00,
2013-04-22 05:21:00,47.0,28.0,-100.00,WSW,237,4.0,9.0,48,0.00,,,0.00,0.000000,,2013-04-22 12:21:00,
2013-04-22 05:31:00,47.0,28.0,-100.00,WSW,237,4.0,9.0,48,0.00,,,0.00,0.000000,,2013-04-22 12:31:00,
2013-04-22 05:42:00,47.0,28.0,-100.00,WSW,237,4.0,9.0,48,0.00,,,0.00,0.000000,,2013-04-22 12:42:00,
2013-04-22 06:11:00,46.0,29.0,-100.00,SW,234,6.0,9.0,51,0.00,,,0.00,0.000000,,2013-04-22 13:11:00,
2013-04-22 06:22:00,46.0,29.0,-100.00,SW,234,6.0,9.0,51,0.00,,,0.00,0.000000,,2013-04-22 13:22:00,
2013-04-22 06:31:00,46.0,29.0,-100.00,SW,234,6.0,9.0,51,0.00,,,0.00,0.000000,,2013-04-22 13:31:00,
2013-04-22 06:41:00,46.0,29.0,-100.00,SW,234,6.0,9.0,51,0.00,,,0.00,0.000000,,2013-04-22 13:41:00,
2013-04-22 07:11:00,45.0,28.0,-100.00,SW,236,1.0,8.0,51,0.00,,,0.00,20.000000,,2013-04-22 14:11:00,
2013-04-22 07:21:00,45.0,28.0,-100.00,SW,236,1.0,8.0,51,0.00,,,0.00,20.000000,,2013-04-22 14:21:00,
2013-04-22 07:33:00,45.0,28.0,-100.00,SW,236,1.0,8.0,51,0.00,,,0.00,20.000000,,2013-04-22 14:33:00,
2013-04-22 07:42:00,45.0,28.0,-100.00,SW,236,1.0,8.0,51,0.00,,,0.00,20.000000,,2013-04-22 14:42:00,
2013-04-22 08:11:00,55.0,31.0,-100.00,WSW,254,2.0,7.0,39,0.00,,,0.00,215.000000,,2013-04-22 15:11:00,
2013-04-22 08:22:00,55.0,31.0,-100.00,WSW,254,2.0,7.0,39,0.00,,,0.00,215.000000,,2013-04-22 15:22:00,
2013-04-22 09:12:00,59.0,31.0,-100.00,NNE,22,6.0,11.0,34,0.00,,,0.00,460.000000,,2013-04-22 16:12:00,
2013-04-22 09:23:00,59.0,31.0,-100.00,NNE,22,6.0,11.0,34,0.00,,,0.00,460.000000,,2013-04-22 16:23:00,
2013-04-22 09:33:00,59.0,31.0,-100.00,NNE,22,6.0,11.0,34,0.00,,,0.00,460.000000,,2013-04-22 16:33:00,
2013-04-22 09:41:00,59.0,31.0,-100.00,NNE,22,6.0,11.0,34,0.00,,,0.00,460.000000,,2013-04-22 16:41:00,
2013-04-22 10:12:00,59.0,29.0,-100.00,NE,50,8.0,14.0,32,0.00,,,0.00,696.000000,,2013-04-22 17:12:00,
2013-04-22 10:22:00,59.0,29.0,-100.00,NE,50,8.0,14.0,32,0.00,,,0.00,696.000000,,2013-04-22 17:22:00,
2013-04-22 10:31:00,59.0,29.0,-100.00,NE,50,8.0,14.0,32,0.00,,,0.00,696.000000,,2013-04-22 17:31:00,
2013-04-22 10:42:00,59.0,29.0,-100.00,NE,50,8.0,14.0,32,0.00,,,0.00,696.000000,,2013-04-22 17:42:00,
2013-04-22 11:12:00,61.0,29.0,-100.00,NE,36,10.0,14.0,29,0.00,,,0.00,939.000000,,2013-04-22 18:12:00,
2013-04-22 11:21:00,61.0,29.0,-100.00,NE,36,10.0,14.0,29,0.00,,,0.00,939.000000,,2013-04-22 18:21:00,
2013-04-22 11:32:00,61.0,29.0,-100.00,NE,36,10.0,14.0,29,0.00,,,0.00,939.000000,,2013-04-22 18:32:00,
2013-04-22 11:42:00,61.0,29.0,-100.00,NE,36,10.0,14.0,29,0.00,,,0.00,939.000000,,2013-04-22 18:42:00,
2013-04-22 12:12:00,64.0,28.0,-100.00,NNE,32,7.0,15.0,26,0.00,,,0.00,1096.000000,,2013-04-22 19:12:00,
2013-04-22 12:21:00,64.0,28.0,-100.00,NNE,32,7.0,15.0,26,0.00,,,0.00,1096.000000,,2013-04-22 19:21:00,
2013-04-22 12:32:00,64.0,28.0,-100.00,NNE,32,7.0,15.0,26,0.00,,,0.00,1096.000000,,2013-04-22 19:32:00,
2013-04-22 12:42:00,64.0,28.0,-100.00,NNE,32,7.0,15.0,26,0.00,,,0.00,1096.000000,,2013-04-22 19:42:00,
2013-04-22 13:11:00,67.0,27.0,-100.00,NNW,337,8.0,18.0,22,0.00,,,0.00,1183.000000,,2013-04-22 20:11:00,
2013-04-22 13:22:00,67.0,27.0,-100.00,NNW,337,8.0,18.0,22,0.00,,,0.00,1183.000000,,2013-04-22 20:22:00,
2013-04-22 13:32:00,67.0,27.0,-100.00,NNW,337,8.0,18.0,22,0.00,,,0.00,1183.000000,,2013-04-22 20:32:00,
2013-04-22 13:41:00,67.0,27.0,-100.00,NNW,337,8.0,18.0,22,0.00,,,0.00,1183.000000,,2013-04-22 20:41:00,
2013-04-22 14:11:00,67.0,27.0,-100.00,ENE,62,8.0,22.0,22,0.00,,,0.00,1195.000000,,2013-04-22 21:11:00,
2013-04-22 14:21:00,67.0,27.0,-100.00,ENE,62,8.0,22.0,22,0.00,,,0.00,1195.000000,,2013-04-22 21:21:00,
2013-04-22 14:32:00,67.0,27.0,-100.00,ENE,62,8.0,22.0,22,0.00,,,0.00,1195.000000,,2013-04-22 21:32:00,
2013-04-22 14:42:00,67.0,27.0,-100.00,ENE,62,8.0,22.0,22,0.00,,,0.00,1195.000000,,2013-04-22 21:42:00,
2013-04-22 15:12:00,68.0,25.0,-100.00,North,9,10.0,21.0,20,0.00,,,0.00,1136.000000,,2013-04-22 22:12:00,
2013-04-22 15:22:00,68.0,25.0,-100.00,North,9,10.0,21.0,20,0.00,,,0.00,1136.000000,,2013-04-22 22:22:00,
2013-04-22 15:33:00,68.0,25.0,-100.00,North,9,10.0,21.0,20,0.00,,,0.00,1136.000000,,2013-04-22 22:33:00,
2013-04-22 15:42:00,68.0,25.0,-100.00,North,9,10.0,21.0,20,0.00,,,0.00,1136.000000,,2013-04-22 22:42:00,
2013-04-22 16:11:00,67.0,23.0,-100.00,NE,36,12.0,25.0,19,0.00,,,0.00,1005.000000,,2013-04-22 23:11:00,
2013-04-22 16:21:00,67.0,23.0,-100.00,NE,36,12.0,25.0,19,0.00,,,0.00,1005.000000,,2013-04-22 23:21:00,
2013-04-22 16:32:00,67.0,23.0,-100.00,NE,36,12.0,25.0,19,0.00,,,0.00,1005.000000,,2013-04-22 23:32:00,
2013-04-22 16:42:00,67.0,23.0,-100.00,NE,36,12.0,25.0,19,0.00,,,0.00,1005.000000,,2013-04-22 23:42:00,
2013-04-22 18:11:00,65.0,20.0,-100.00,NNE,25,16.0,26.0,18,-99.99,,,0.00,570.000000,,2013-04-23 01:11:00,
2013-04-22 18:21:00,65.0,20.0,-100.00,NNE,25,16.0,26.0,18,-99.99,,,0.00,570.000000,,2013-04-23 01:21:00,
2013-04-22 18:32:00,65.0,20.0,-100.00,NNE,25,16.0,26.0,18,-99.99,,,0.00,570.000000,,2013-04-23 01:32:00,
2013-04-22 18:42:00,65.0,20.0,-100.00,NNE,25,16.0,26.0,18,-99.99,,,0.00,570.000000,,2013-04-23 01:42:00,
2013-04-22 19:12:00,62.0,17.0,-100.00,NNE,33,16.0,26.0,17,0.00,,,0.00,306.000000,,2013-04-23 02:12:00,
2013-04-22 19:21:00,62.0,17.0,-100.00,NNE,33,16.0,26.0,17,0.00,,,0.00,306.000000,,2013-04-23 02:21:00,
2013-04-22 19:32:00,62.0,17.0,-100.00,NNE,33,16.0,26.0,17,0.00,,,0.00,306.000000,,2013-04-23 02:32:00,
2013-04-22 19:42:00,62.0,17.0,-100.00,NNE,33,16.0,26.0,17,0.00,,,0.00,306.000000,,2013-04-23 02:42:00,
2013-04-22 20:11:00,56.0,14.0,-100.00,NE,39,14.0,27.0,19,0.00,,,0.00,68.000000,,2013-04-23 03:11:00,
2013-04-22 20:21:00,56.0,14.0,-100.00,NE,39,14.0,27.0,19,0.00,,,0.00,68.000000,,2013-04-23 03:21:00,
2013-04-22 20:33:00,56.0,14.0,-100.00,NE,39,14.0,27.0,19,0.00,,,0.00,68.000000,,2013-04-23 03:33:00,
2013-04-22 20:43:00,56.0,14.0,-100.00,NE,39,14.0,27.0,19,0.00,,,0.00,68.000000,,2013-04-23 03:43:00,
2013-04-22 21:12:00,53.0,13.0,-100.00,NNE,32,13.0,21.0,20,0.00,,,0.00,0.000000,,2013-04-23 04:12:00,
2013-04-22 21:23:00,53.0,13.0,-100.00,NNE,32,13.0,21.0,20,0.00,,,0.00,0.000000,,2013-04-23 04:23:00,
2013-04-22 21:33:00,53.0,13.0,-100.00,NNE,32,13.0,21.0,20,0.00,,,0.00,0.000000,,2013-04-23 04:33:00,
2013-04-22 21:43:00,53.0,13.0,-100.00,NNE,32,13.0,21.0,20,0.00,,,0.00,0.000000,,2013-04-23 04:43:00,
2013-04-22 22:12:00,49.0,10.0,-100.00,NNE,21,12.0,21.0,20,0.00,,,0.00,0.000000,,2013-04-23 05:12:00,
2013-04-22 22:22:00,49.0,10.0,-100.00,NNE,21,12.0,21.0,20,0.00,,,0.00,0.000000,,2013-04-23 05:22:00,
2013-04-22 22:32:00,49.0,10.0,-100.00,NNE,21,12.0,21.0,20,0.00,,,0.00,0.000000,,2013-04-23 05:32:00,
2013-04-22 22:42:00,49.0,10.0,-100.00,NNE,21,12.0,21.0,20,0.00,,,0.00,0.000000,,2013-04-23 05:42:00,
2013-04-22 23:12:00,46.0,7.0,-100.00,NNE,15,7.0,15.0,20,0.00,,,0.00,0.000000,,2013-04-23 06:12:00,
2013-04-22 23:21:00,46.0,7.0,-100.00,NNE,15,7.0,15.0,20,0.00,,,0.00,0.000000,,2013-04-23 06:21:00,
2013-04-22 23:32:00,46.0,7.0,-100.00,NNE,15,7.0,15.0,20,0.00,,,0.00,0.000000,,2013-04-23 06:32:00,
2013-04-22 23:41:00,46.0,7.0,-100.00,NNE,15,7.0,15.0,20,0.00,,,0.00,0.000000,,2013-04-23 06:41:00,